sensor_id;sensor_type;location;lat;lon;timestamp;temperature;humidity
3816;DHT22;1923;48.154;11.536;2024-02-16T00:02:15;9.10;99.90
3816;DHT22;1923;48.154;11.536;2024-02-16T00:04:44;9.10;99.90
3816;DHT22;1923;48.154;11.536;2024-02-16T00:07:13;9.10;99.90
3816;DHT22;1923;48.154;11.536;2024-02-16T00:09:41;9.10;99.90
3816;DHT22;1923;48.154;11.536;2024-02-16T00:12:09;9.10;99.90
3816;DHT22;1923;48.154;11.536;2024-02-16T00:14:38;9.10;99.90
3816;DHT22;1923;48.154;11.536;2024-02-16T00:17:06;9.00;99.90
3816;DHT22;1923;48.154;11.536;2024-02-16T00:19:38;9.00;99.90
3816;DHT22;1923;48.154;11.536;2024-02-16T00:22:06;9.00;99.90
3816;DHT22;1923;48.154;11.536;2024-02-16T00:24:35;9.00;99.90
3816;DHT22;1923;48.154;11.536;2024-02-16T00:27:04;9.10;99.90
3816;DHT22;1923;48.154;11.536;2024-02-16T00:29:33;9.10;99.90
3816;DHT22;1923;48.154;11.536;2024-02-16T00:32:01;8.90;99.90
3816;DHT22;1923;48.154;11.536;2024-02-16T00:34:29;9.00;99.90
3816;DHT22;1923;48.154;11.536;2024-02-16T00:36:58;9.00;99.90
3816;DHT22;1923;48.154;11.536;2024-02-16T00:39:26;9.00;99.90
3816;DHT22;1923;48.154;11.536;2024-02-16T00:41:55;9.00;99.90
3816;DHT22;1923;48.154;11.536;2024-02-16T00:44:23;9.00;99.90
3816;DHT22;1923;48.154;11.536;2024-02-16T00:46:51;8.80;99.90
3816;DHT22;1923;48.154;11.536;2024-02-16T00:49:19;8.90;99.90
3816;DHT22;1923;48.154;11.536;2024-02-16T00:51:47;8.90;99.90
3816;DHT22;1923;48.154;11.536;2024-02-16T00:54:18;8.90;99.90
3816;DHT22;1923;48.154;11.536;2024-02-16T00:56:47;8.80;99.90
3816;DHT22;1923;48.154;11.536;2024-02-16T00:59:15;8.60;99.90
3816;DHT22;1923;48.154;11.536;2024-02-16T01:01:43;8.60;99.90
3816;DHT22;1923;48.154;11.536;2024-02-16T01:04:13;8.60;99.90
3816;DHT22;1923;48.154;11.536;2024-02-16T01:06:41;8.60;99.90
3816;DHT22;1923;48.154;11.536;2024-02-16T01:09:09;8.60;99.90
3816;DHT22;1923;48.154;11.536;2024-02-16T01:11:42;8.60;99.90
3816;DHT22;1923;48.154;11.536;2024-02-16T01:14:10;8.50;99.90
3816;DHT22;1923;48.154;11.536;2024-02-16T01:16:38;8.50;99.90
3816;DHT22;1923;48.154;11.536;2024-02-16T01:19:07;8.70;99.90
3816;DHT22;1923;48.154;11.536;2024-02-16T01:21:36;8.70;99.90
3816;DHT22;1923;48.154;11.536;2024-02-16T01:24:04;8.70;99.90
3816;DHT22;1923;48.154;11.536;2024-02-16T01:26:32;8.70;99.90
3816;DHT22;1923;48.154;11.536;2024-02-16T01:29:02;8.70;99.90
3816;DHT22;1923;48.154;11.536;2024-02-16T01:31:30;8.70;99.90
3816;DHT22;1923;48.154;11.536;2024-02-16T01:33:58;8.80;99.90
3816;DHT22;1923;48.154;11.536;2024-02-16T01:36:26;8.80;99.90
3816;DHT22;1923;48.154;11.536;2024-02-16T01:38:54;8.80;99.90
3816;DHT22;1923;48.154;11.536;2024-02-16T01:41:23;8.80;99.90
3816;DHT22;1923;48.154;11.536;2024-02-16T01:43:52;8.80;99.90
3816;DHT22;1923;48.154;11.536;2024-02-16T01:46:22;8.80;99.90
3816;DHT22;1923;48.154;11.536;2024-02-16T01:48:51;8.90;99.90
3816;DHT22;1923;48.154;11.536;2024-02-16T01:51:19;9.10;99.90
3816;DHT22;1923;48.154;11.536;2024-02-16T01:53:49;9.00;99.90
3816;DHT22;1923;48.154;11.536;2024-02-16T01:56:18;8.90;99.90
3816;DHT22;1923;48.154;11.536;2024-02-16T01:58:47;8.90;99.90
3816;DHT22;1923;48.154;11.536;2024-02-16T02:01:15;9.00;99.90
3816;DHT22;1923;48.154;11.536;2024-02-16T02:03:44;9.00;99.90
3816;DHT22;1923;48.154;11.536;2024-02-16T02:06:13;9.00;99.90
3816;DHT22;1923;48.154;11.536;2024-02-16T02:08:41;9.00;99.90
3816;DHT22;1923;48.154;11.536;2024-02-16T02:11:09;9.00;99.90
3816;DHT22;1923;48.154;11.536;2024-02-16T02:13:37;9.10;99.90
3816;DHT22;1923;48.154;11.536;2024-02-16T02:16:06;9.10;99.90
3816;DHT22;1923;48.154;11.536;2024-02-16T02:18:34;9.10;99.90
3816;DHT22;1923;48.154;11.536;2024-02-16T02:21:04;9.10;99.90
3816;DHT22;1923;48.154;11.536;2024-02-16T02:23:34;9.20;99.90
3816;DHT22;1923;48.154;11.536;2024-02-16T02:26:02;9.10;99.90
3816;DHT22;1923;48.154;11.536;2024-02-16T02:28:30;9.10;99.90
3816;DHT22;1923;48.154;11.536;2024-02-16T02:30:58;9.10;99.90
3816;DHT22;1923;48.154;11.536;2024-02-16T02:33:26;9.10;99.90
3816;DHT22;1923;48.154;11.536;2024-02-16T02:35:54;9.10;99.90
3816;DHT22;1923;48.154;11.536;2024-02-16T02:38:22;9.10;99.90
3816;DHT22;1923;48.154;11.536;2024-02-16T02:40:52;9.10;99.90
3816;DHT22;1923;48.154;11.536;2024-02-16T02:43:20;9.20;99.90
3816;DHT22;1923;48.154;11.536;2024-02-16T02:45:49;9.20;99.90
3816;DHT22;1923;48.154;11.536;2024-02-16T02:48:18;9.20;99.90
3816;DHT22;1923;48.154;11.536;2024-02-16T02:50:46;9.10;99.90
3816;DHT22;1923;48.154;11.536;2024-02-16T02:53:14;9.20;99.90
3816;DHT22;1923;48.154;11.536;2024-02-16T02:55:42;9.00;99.90
3816;DHT22;1923;48.154;11.536;2024-02-16T02:58:11;9.10;99.90
3816;DHT22;1923;48.154;11.536;2024-02-16T03:00:39;9.10;99.90
3816;DHT22;1923;48.154;11.536;2024-02-16T03:03:08;9.10;99.90
3816;DHT22;1923;48.154;11.536;2024-02-16T03:05:36;9.10;99.90
3816;DHT22;1923;48.154;11.536;2024-02-16T03:08:05;9.10;99.90
3816;DHT22;1923;48.154;11.536;2024-02-16T03:10:33;9.10;99.90
3816;DHT22;1923;48.154;11.536;2024-02-16T03:13:02;9.10;99.90
3816;DHT22;1923;48.154;11.536;2024-02-16T03:15:32;9.10;99.90
3816;DHT22;1923;48.154;11.536;2024-02-16T03:18:00;9.00;99.90
3816;DHT22;1923;48.154;11.536;2024-02-16T03:20:28;9.00;99.90
3816;DHT22;1923;48.154;11.536;2024-02-16T03:22:57;9.00;99.90
3816;DHT22;1923;48.154;11.536;2024-02-16T03:25:25;9.00;99.90
3816;DHT22;1923;48.154;11.536;2024-02-16T03:27:53;9.00;99.90
3816;DHT22;1923;48.154;11.536;2024-02-16T03:30:21;9.00;99.90
3816;DHT22;1923;48.154;11.536;2024-02-16T03:32:51;9.10;99.90
3816;DHT22;1923;48.154;11.536;2024-02-16T03:35:20;9.00;99.90
3816;DHT22;1923;48.154;11.536;2024-02-16T03:37:48;8.90;99.90
3816;DHT22;1923;48.154;11.536;2024-02-16T03:40:16;8.90;99.90
3816;DHT22;1923;48.154;11.536;2024-02-16T03:42:44;8.80;99.90
3816;DHT22;1923;48.154;11.536;2024-02-16T03:45:12;8.80;99.90
3816;DHT22;1923;48.154;11.536;2024-02-16T03:47:41;8.90;99.90
3816;DHT22;1923;48.154;11.536;2024-02-16T03:50:10;8.90;99.90
3816;DHT22;1923;48.154;11.536;2024-02-16T03:52:41;8.90;99.90
3816;DHT22;1923;48.154;11.536;2024-02-16T03:55:09;8.90;99.90
3816;DHT22;1923;48.154;11.536;2024-02-16T03:57:37;8.90;99.90
3816;DHT22;1923;48.154;11.536;2024-02-16T04:00:06;9.00;99.90
3816;DHT22;1923;48.154;11.536;2024-02-16T04:02:35;8.90;99.90
3816;DHT22;1923;48.154;11.536;2024-02-16T04:05:04;8.90;99.90
3816;DHT22;1923;48.154;11.536;2024-02-16T04:07:36;8.90;99.90
3816;DHT22;1923;48.154;11.536;2024-02-16T04:10:05;8.90;99.90
3816;DHT22;1923;48.154;11.536;2024-02-16T04:12:34;9.00;99.90
3816;DHT22;1923;48.154;11.536;2024-02-16T04:15:04;9.00;99.90
3816;DHT22;1923;48.154;11.536;2024-02-16T04:17:32;9.00;99.90
3816;DHT22;1923;48.154;11.536;2024-02-16T04:20:00;9.00;99.90
3816;DHT22;1923;48.154;11.536;2024-02-16T04:22:28;9.00;99.90
3816;DHT22;1923;48.154;11.536;2024-02-16T04:24:58;9.10;99.90
3816;DHT22;1923;48.154;11.536;2024-02-16T04:27:26;9.00;99.90
3816;DHT22;1923;48.154;11.536;2024-02-16T04:29:54;9.00;99.90
3816;DHT22;1923;48.154;11.536;2024-02-16T04:32:23;9.00;99.90
3816;DHT22;1923;48.154;11.536;2024-02-16T04:34:52;9.10;99.90
3816;DHT22;1923;48.154;11.536;2024-02-16T04:37:23;9.10;99.90
3816;DHT22;1923;48.154;11.536;2024-02-16T04:39:52;9.10;99.90
3816;DHT22;1923;48.154;11.536;2024-02-16T04:42:21;9.10;99.90
3816;DHT22;1923;48.154;11.536;2024-02-16T04:44:50;9.20;99.90
3816;DHT22;1923;48.154;11.536;2024-02-16T04:47:18;9.20;99.90
3816;DHT22;1923;48.154;11.536;2024-02-16T04:49:46;9.20;99.90
3816;DHT22;1923;48.154;11.536;2024-02-16T04:52:14;9.20;99.90
3816;DHT22;1923;48.154;11.536;2024-02-16T04:54:42;9.30;99.90
3816;DHT22;1923;48.154;11.536;2024-02-16T04:57:10;9.30;99.90
3816;DHT22;1923;48.154;11.536;2024-02-16T04:59:40;9.30;99.90
3816;DHT22;1923;48.154;11.536;2024-02-16T05:02:08;9.40;99.90
3816;DHT22;1923;48.154;11.536;2024-02-16T05:04:36;9.30;99.90
3816;DHT22;1923;48.154;11.536;2024-02-16T05:07:04;9.40;99.90
3816;DHT22;1923;48.154;11.536;2024-02-16T05:09:32;9.40;99.90
3816;DHT22;1923;48.154;11.536;2024-02-16T05:12:01;9.30;99.90
3816;DHT22;1923;48.154;11.536;2024-02-16T05:14:30;9.30;99.90
3816;DHT22;1923;48.154;11.536;2024-02-16T05:16:59;9.20;99.90
3816;DHT22;1923;48.154;11.536;2024-02-16T05:19:27;9.30;99.90
3816;DHT22;1923;48.154;11.536;2024-02-16T05:21:55;9.30;99.90
3816;DHT22;1923;48.154;11.536;2024-02-16T05:24:23;9.30;99.90
3816;DHT22;1923;48.154;11.536;2024-02-16T05:26:51;9.40;99.90
3816;DHT22;1923;48.154;11.536;2024-02-16T05:29:19;9.30;99.90
3816;DHT22;1923;48.154;11.536;2024-02-16T05:31:50;9.50;99.90
3816;DHT22;1923;48.154;11.536;2024-02-16T05:34:20;9.40;99.90
3816;DHT22;1923;48.154;11.536;2024-02-16T05:36:50;9.30;99.90
3816;DHT22;1923;48.154;11.536;2024-02-16T05:39:18;9.40;99.90
3816;DHT22;1923;48.154;11.536;2024-02-16T05:41:54;9.40;99.90
3816;DHT22;1923;48.154;11.536;2024-02-16T05:44:22;9.40;99.90
3816;DHT22;1923;48.154;11.536;2024-02-16T05:46:50;9.50;99.90
3816;DHT22;1923;48.154;11.536;2024-02-16T05:49:20;9.50;99.90
3816;DHT22;1923;48.154;11.536;2024-02-16T05:51:48;9.50;99.90
3816;DHT22;1923;48.154;11.536;2024-02-16T05:54:44;9.50;99.90
3816;DHT22;1923;48.154;11.536;2024-02-16T05:57:13;9.50;99.90
3816;DHT22;1923;48.154;11.536;2024-02-16T05:59:41;9.50;99.90
3816;DHT22;1923;48.154;11.536;2024-02-16T06:02:09;9.50;99.90
3816;DHT22;1923;48.154;11.536;2024-02-16T06:04:39;9.50;99.90
3816;DHT22;1923;48.154;11.536;2024-02-16T06:07:08;9.50;99.90
3816;DHT22;1923;48.154;11.536;2024-02-16T06:09:37;9.50;99.90
3816;DHT22;1923;48.154;11.536;2024-02-16T06:12:05;9.50;99.90
3816;DHT22;1923;48.154;11.536;2024-02-16T06:14:34;9.60;99.90
3816;DHT22;1923;48.154;11.536;2024-02-16T06:17:04;9.60;99.90
3816;DHT22;1923;48.154;11.536;2024-02-16T06:19:32;9.60;99.90
3816;DHT22;1923;48.154;11.536;2024-02-16T06:22:02;9.70;99.90
3816;DHT22;1923;48.154;11.536;2024-02-16T06:24:30;9.70;99.90
3816;DHT22;1923;48.154;11.536;2024-02-16T06:26:58;9.70;99.90
3816;DHT22;1923;48.154;11.536;2024-02-16T06:29:26;9.80;99.90
3816;DHT22;1923;48.154;11.536;2024-02-16T06:31:54;9.70;99.90
3816;DHT22;1923;48.154;11.536;2024-02-16T06:34:23;9.70;99.90
3816;DHT22;1923;48.154;11.536;2024-02-16T06:36:51;9.70;99.90
3816;DHT22;1923;48.154;11.536;2024-02-16T06:39:22;9.70;99.90
3816;DHT22;1923;48.154;11.536;2024-02-16T06:41:51;9.70;99.90
3816;DHT22;1923;48.154;11.536;2024-02-16T06:44:19;9.80;99.90
3816;DHT22;1923;48.154;11.536;2024-02-16T06:46:50;9.90;99.90
3816;DHT22;1923;48.154;11.536;2024-02-16T06:49:18;10.00;99.90
3816;DHT22;1923;48.154;11.536;2024-02-16T06:51:46;9.90;99.90
3816;DHT22;1923;48.154;11.536;2024-02-16T06:54:14;10.00;99.90
3816;DHT22;1923;48.154;11.536;2024-02-16T06:56:44;10.10;99.90
3816;DHT22;1923;48.154;11.536;2024-02-16T06:59:13;10.20;99.90
3816;DHT22;1923;48.154;11.536;2024-02-16T07:01:41;10.20;99.90
3816;DHT22;1923;48.154;11.536;2024-02-16T07:04:09;10.20;99.90
3816;DHT22;1923;48.154;11.536;2024-02-16T07:06:37;10.20;99.90
3816;DHT22;1923;48.154;11.536;2024-02-16T07:09:06;10.40;99.90
3816;DHT22;1923;48.154;11.536;2024-02-16T07:11:34;10.40;99.90
3816;DHT22;1923;48.154;11.536;2024-02-16T07:14:04;10.50;99.90
3816;DHT22;1923;48.154;11.536;2024-02-16T07:16:33;10.60;99.90
3816;DHT22;1923;48.154;11.536;2024-02-16T07:19:02;10.70;99.90
3816;DHT22;1923;48.154;11.536;2024-02-16T07:21:30;10.70;99.90
3816;DHT22;1923;48.154;11.536;2024-02-16T07:23:58;10.90;99.90
3816;DHT22;1923;48.154;11.536;2024-02-16T07:26:27;10.90;99.90
3816;DHT22;1923;48.154;11.536;2024-02-16T07:28:56;11.00;99.90
3816;DHT22;1923;48.154;11.536;2024-02-16T07:31:25;11.10;99.90
3816;DHT22;1923;48.154;11.536;2024-02-16T07:33:53;11.30;99.90
3816;DHT22;1923;48.154;11.536;2024-02-16T07:36:21;11.70;99.90
3816;DHT22;1923;48.154;11.536;2024-02-16T07:38:50;12.10;99.90
3816;DHT22;1923;48.154;11.536;2024-02-16T07:41:18;12.60;99.90
3816;DHT22;1923;48.154;11.536;2024-02-16T07:43:46;12.80;99.90
3816;DHT22;1923;48.154;11.536;2024-02-16T07:46:14;12.90;99.90
3816;DHT22;1923;48.154;11.536;2024-02-16T07:48:43;12.90;99.90
3816;DHT22;1923;48.154;11.536;2024-02-16T07:51:11;13.10;99.90
3816;DHT22;1923;48.154;11.536;2024-02-16T07:53:40;13.20;99.90
3816;DHT22;1923;48.154;11.536;2024-02-16T07:56:11;13.30;99.90
3816;DHT22;1923;48.154;11.536;2024-02-16T07:58:41;13.30;99.90
3816;DHT22;1923;48.154;11.536;2024-02-16T08:01:12;13.30;99.90
3816;DHT22;1923;48.154;11.536;2024-02-16T08:03:43;13.40;99.90
3816;DHT22;1923;48.154;11.536;2024-02-16T08:06:12;13.50;99.90
3816;DHT22;1923;48.154;11.536;2024-02-16T08:08:40;13.50;99.90
3816;DHT22;1923;48.154;11.536;2024-02-16T08:11:08;13.50;99.90
3816;DHT22;1923;48.154;11.536;2024-02-16T08:13:36;13.60;99.90
3816;DHT22;1923;48.154;11.536;2024-02-16T08:16:05;13.60;99.90
3816;DHT22;1923;48.154;11.536;2024-02-16T08:18:34;13.70;99.90
3816;DHT22;1923;48.154;11.536;2024-02-16T08:21:04;13.80;99.90
3816;DHT22;1923;48.154;11.536;2024-02-16T08:23:32;13.90;99.90
3816;DHT22;1923;48.154;11.536;2024-02-16T08:26:00;14.00;99.90
3816;DHT22;1923;48.154;11.536;2024-02-16T08:28:28;14.00;99.90
3816;DHT22;1923;48.154;11.536;2024-02-16T08:30:56;14.00;99.90
3816;DHT22;1923;48.154;11.536;2024-02-16T08:33:24;14.00;99.90
3816;DHT22;1923;48.154;11.536;2024-02-16T08:35:53;14.00;99.90
3816;DHT22;1923;48.154;11.536;2024-02-16T08:38:22;14.20;99.90
3816;DHT22;1923;48.154;11.536;2024-02-16T08:40:50;14.30;99.90
3816;DHT22;1923;48.154;11.536;2024-02-16T08:43:19;14.60;99.90
3816;DHT22;1923;48.154;11.536;2024-02-16T08:45:47;14.80;99.90
3816;DHT22;1923;48.154;11.536;2024-02-16T08:48:15;15.00;99.90
3816;DHT22;1923;48.154;11.536;2024-02-16T08:50:44;15.20;99.90
3816;DHT22;1923;48.154;11.536;2024-02-16T08:53:12;15.40;99.90
3816;DHT22;1923;48.154;11.536;2024-02-16T08:55:42;15.70;99.90
3816;DHT22;1923;48.154;11.536;2024-02-16T08:58:12;16.10;99.90
3816;DHT22;1923;48.154;11.536;2024-02-16T09:00:40;16.30;99.90
3816;DHT22;1923;48.154;11.536;2024-02-16T09:03:08;16.50;99.90
3816;DHT22;1923;48.154;11.536;2024-02-16T09:05:37;16.60;99.90
3816;DHT22;1923;48.154;11.536;2024-02-16T09:08:06;16.60;99.90
3816;DHT22;1923;48.154;11.536;2024-02-16T09:10:34;16.80;99.90
3816;DHT22;1923;48.154;11.536;2024-02-16T09:13:05;17.00;99.90
3816;DHT22;1923;48.154;11.536;2024-02-16T09:15:37;17.10;99.90
3816;DHT22;1923;48.154;11.536;2024-02-16T09:18:09;17.20;99.90
3816;DHT22;1923;48.154;11.536;2024-02-16T09:20:37;17.40;99.90
3816;DHT22;1923;48.154;11.536;2024-02-16T09:23:06;17.50;99.90
3816;DHT22;1923;48.154;11.536;2024-02-16T09:25:34;17.80;99.60
3816;DHT22;1923;48.154;11.536;2024-02-16T09:28:04;18.20;99.20
3816;DHT22;1923;48.154;11.536;2024-02-16T09:30:38;18.60;98.00
3816;DHT22;1923;48.154;11.536;2024-02-16T09:33:06;19.10;97.30
3816;DHT22;1923;48.154;11.536;2024-02-16T09:35:35;19.50;96.20
3816;DHT22;1923;48.154;11.536;2024-02-16T09:38:03;20.40;95.30
3816;DHT22;1923;48.154;11.536;2024-02-16T09:40:31;20.80;94.30
3816;DHT22;1923;48.154;11.536;2024-02-16T09:42:59;21.10;93.60
3816;DHT22;1923;48.154;11.536;2024-02-16T09:45:28;20.90;92.90
3816;DHT22;1923;48.154;11.536;2024-02-16T09:47:58;20.70;92.50
3816;DHT22;1923;48.154;11.536;2024-02-16T09:50:33;20.60;92.70
3816;DHT22;1923;48.154;11.536;2024-02-16T09:53:04;20.90;91.60
3816;DHT22;1923;48.154;11.536;2024-02-16T09:55:33;21.40;91.10
3816;DHT22;1923;48.154;11.536;2024-02-16T09:58:02;21.70;90.30
3816;DHT22;1923;48.154;11.536;2024-02-16T10:00:31;22.50;89.20
3816;DHT22;1923;48.154;11.536;2024-02-16T10:03:01;22.20;85.70
3816;DHT22;1923;48.154;11.536;2024-02-16T10:05:31;22.30;85.60
3816;DHT22;1923;48.154;11.536;2024-02-16T10:07:59;22.30;85.00
3816;DHT22;1923;48.154;11.536;2024-02-16T10:10:28;22.50;83.50
3816;DHT22;1923;48.154;11.536;2024-02-16T10:13:01;22.00;80.50
3816;DHT22;1923;48.154;11.536;2024-02-16T10:15:30;21.80;83.50
3816;DHT22;1923;48.154;11.536;2024-02-16T10:18:01;21.60;82.50
3816;DHT22;1923;48.154;11.536;2024-02-16T10:20:29;21.40;82.90
3816;DHT22;1923;48.154;11.536;2024-02-16T10:23:05;21.30;82.50
3816;DHT22;1923;48.154;11.536;2024-02-16T10:25:57;22.20;81.00
3816;DHT22;1923;48.154;11.536;2024-02-16T10:28:28;23.40;78.20
3816;DHT22;1923;48.154;11.536;2024-02-16T10:30:59;23.80;76.10
3816;DHT22;1923;48.154;11.536;2024-02-16T10:33:29;24.80;74.00
3816;DHT22;1923;48.154;11.536;2024-02-16T10:36:00;25.00;73.00
3816;DHT22;1923;48.154;11.536;2024-02-16T10:38:30;25.10;70.80
3816;DHT22;1923;48.154;11.536;2024-02-16T10:40:59;25.50;69.30
3816;DHT22;1923;48.154;11.536;2024-02-16T10:43:29;26.70;67.50
3816;DHT22;1923;48.154;11.536;2024-02-16T10:45:58;27.40;62.70
3816;DHT22;1923;48.154;11.536;2024-02-16T10:48:30;28.70;59.80
3816;DHT22;1923;48.154;11.536;2024-02-16T10:50:58;30.00;56.50
3816;DHT22;1923;48.154;11.536;2024-02-16T10:53:28;30.80;54.10
3816;DHT22;1923;48.154;11.536;2024-02-16T10:55:58;30.90;51.40
3816;DHT22;1923;48.154;11.536;2024-02-16T10:58:29;30.70;50.90
3816;DHT22;1923;48.154;11.536;2024-02-16T11:00:57;30.20;50.60
3816;DHT22;1923;48.154;11.536;2024-02-16T11:03:26;30.30;49.90
3816;DHT22;1923;48.154;11.536;2024-02-16T11:05:57;31.10;48.60
3816;DHT22;1923;48.154;11.536;2024-02-16T11:08:26;31.40;47.30
3816;DHT22;1923;48.154;11.536;2024-02-16T11:10:57;32.20;46.20
3816;DHT22;1923;48.154;11.536;2024-02-16T11:13:26;32.90;44.70
3816;DHT22;1923;48.154;11.536;2024-02-16T11:15:58;33.40;43.50
3816;DHT22;1923;48.154;11.536;2024-02-16T11:18:27;33.40;42.90
3816;DHT22;1923;48.154;11.536;2024-02-16T11:21:01;33.30;42.30
3816;DHT22;1923;48.154;11.536;2024-02-16T11:23:31;33.80;42.00
3816;DHT22;1923;48.154;11.536;2024-02-16T11:26:03;33.40;41.50
3816;DHT22;1923;48.154;11.536;2024-02-16T11:28:32;33.80;41.20
3816;DHT22;1923;48.154;11.536;2024-02-16T11:31:01;33.50;41.30
3816;DHT22;1923;48.154;11.536;2024-02-16T11:33:30;33.80;40.80
3816;DHT22;1923;48.154;11.536;2024-02-16T11:36:01;33.10;41.00
3816;DHT22;1923;48.154;11.536;2024-02-16T11:38:31;31.50;43.10
3816;DHT22;1923;48.154;11.536;2024-02-16T11:41:01;29.80;44.80
3816;DHT22;1923;48.154;11.536;2024-02-16T11:43:30;27.90;47.20
3816;DHT22;1923;48.154;11.536;2024-02-16T11:45:59;26.30;49.90
3816;DHT22;1923;48.154;11.536;2024-02-16T11:48:27;25.50;51.20
3816;DHT22;1923;48.154;11.536;2024-02-16T11:51:02;24.50;52.90
3816;DHT22;1923;48.154;11.536;2024-02-16T11:53:31;23.80;54.30
3816;DHT22;1923;48.154;11.536;2024-02-16T11:55:59;23.20;55.70
3816;DHT22;1923;48.154;11.536;2024-02-16T11:58:27;22.70;56.80
3816;DHT22;1923;48.154;11.536;2024-02-16T12:00:57;22.20;58.00
3816;DHT22;1923;48.154;11.536;2024-02-16T12:03:30;21.80;58.90
3816;DHT22;1923;48.154;11.536;2024-02-16T12:05:59;21.60;59.40
3816;DHT22;1923;48.154;11.536;2024-02-16T12:08:34;21.30;60.50
3816;DHT22;1923;48.154;11.536;2024-02-16T12:11:02;21.20;61.90
3816;DHT22;1923;48.154;11.536;2024-02-16T12:13:30;21.00;61.90
3816;DHT22;1923;48.154;11.536;2024-02-16T12:15:58;20.80;62.90
3816;DHT22;1923;48.154;11.536;2024-02-16T12:18:27;20.70;64.00
3816;DHT22;1923;48.154;11.536;2024-02-16T12:20:57;20.70;64.20
3816;DHT22;1923;48.154;11.536;2024-02-16T12:23:26;20.50;64.70
3816;DHT22;1923;48.154;11.536;2024-02-16T12:25:55;20.60;66.00
3816;DHT22;1923;48.154;11.536;2024-02-16T12:28:25;20.70;66.20
3816;DHT22;1923;48.154;11.536;2024-02-16T12:30:54;20.70;66.40
3816;DHT22;1923;48.154;11.536;2024-02-16T12:33:26;21.00;65.80
3816;DHT22;1923;48.154;11.536;2024-02-16T12:35:54;21.00;66.40
3816;DHT22;1923;48.154;11.536;2024-02-16T12:38:22;21.00;66.40
3816;DHT22;1923;48.154;11.536;2024-02-16T12:40:50;21.00;67.00
3816;DHT22;1923;48.154;11.536;2024-02-16T12:43:20;21.10;67.30
3816;DHT22;1923;48.154;11.536;2024-02-16T12:45:48;21.20;67.50
3816;DHT22;1923;48.154;11.536;2024-02-16T12:48:16;21.10;67.80
3816;DHT22;1923;48.154;11.536;2024-02-16T12:50:45;21.20;67.90
3816;DHT22;1923;48.154;11.536;2024-02-16T12:53:14;21.20;67.90
3816;DHT22;1923;48.154;11.536;2024-02-16T12:55:42;21.10;68.60
3816;DHT22;1923;48.154;11.536;2024-02-16T12:58:10;21.20;68.50
3816;DHT22;1923;48.154;11.536;2024-02-16T13:00:41;21.00;69.30
3816;DHT22;1923;48.154;11.536;2024-02-16T13:03:09;20.90;68.60
3816;DHT22;1923;48.154;11.536;2024-02-16T13:05:37;20.70;66.00
3816;DHT22;1923;48.154;11.536;2024-02-16T13:08:06;20.50;66.00
3816;DHT22;1923;48.154;11.536;2024-02-16T13:10:34;20.30;66.70
3816;DHT22;1923;48.154;11.536;2024-02-16T13:13:03;20.30;67.50
3816;DHT22;1923;48.154;11.536;2024-02-16T13:15:31;20.20;68.40
3816;DHT22;1923;48.154;11.536;2024-02-16T13:18:00;20.20;69.60
3816;DHT22;1923;48.154;11.536;2024-02-16T13:20:29;20.30;70.20
3816;DHT22;1923;48.154;11.536;2024-02-16T13:22:57;20.00;70.50
3816;DHT22;1923;48.154;11.536;2024-02-16T13:25:26;19.80;71.60
3816;DHT22;1923;48.154;11.536;2024-02-16T13:27:54;19.70;72.40
3816;DHT22;1923;48.154;11.536;2024-02-16T13:30:22;19.70;73.50
3816;DHT22;1923;48.154;11.536;2024-02-16T13:32:51;19.80;73.40
3816;DHT22;1923;48.154;11.536;2024-02-16T13:35:21;19.60;74.00
3816;DHT22;1923;48.154;11.536;2024-02-16T13:37:49;19.50;74.90
3816;DHT22;1923;48.154;11.536;2024-02-16T13:40:17;19.30;75.80
3816;DHT22;1923;48.154;11.536;2024-02-16T13:42:46;19.30;76.60
3816;DHT22;1923;48.154;11.536;2024-02-16T13:45:15;19.20;77.80
3816;DHT22;1923;48.154;11.536;2024-02-16T13:47:43;19.20;78.20
3816;DHT22;1923;48.154;11.536;2024-02-16T13:50:11;19.00;78.90
3816;DHT22;1923;48.154;11.536;2024-02-16T13:52:41;18.90;79.90
3816;DHT22;1923;48.154;11.536;2024-02-16T13:55:09;18.90;80.40
3816;DHT22;1923;48.154;11.536;2024-02-16T13:57:37;18.90;80.90
3816;DHT22;1923;48.154;11.536;2024-02-16T14:00:07;19.00;81.80
3816;DHT22;1923;48.154;11.536;2024-02-16T14:02:35;18.80;81.50
3816;DHT22;1923;48.154;11.536;2024-02-16T14:05:04;18.80;81.60
3816;DHT22;1923;48.154;11.536;2024-02-16T14:07:32;18.90;80.60
3816;DHT22;1923;48.154;11.536;2024-02-16T14:10:13;18.80;81.00
3816;DHT22;1923;48.154;11.536;2024-02-16T14:12:42;18.70;80.80
3816;DHT22;1923;48.154;11.536;2024-02-16T14:15:10;18.60;80.90
3816;DHT22;1923;48.154;11.536;2024-02-16T14:17:42;18.60;81.00
3816;DHT22;1923;48.154;11.536;2024-02-16T14:20:11;18.60;81.60
3816;DHT22;1923;48.154;11.536;2024-02-16T14:22:39;18.70;81.70
3816;DHT22;1923;48.154;11.536;2024-02-16T14:25:08;18.70;81.80
3816;DHT22;1923;48.154;11.536;2024-02-16T14:27:39;18.70;81.90
3816;DHT22;1923;48.154;11.536;2024-02-16T14:30:09;18.70;82.40
3816;DHT22;1923;48.154;11.536;2024-02-16T14:32:37;18.80;83.00
3816;DHT22;1923;48.154;11.536;2024-02-16T14:35:06;18.90;83.20
3816;DHT22;1923;48.154;11.536;2024-02-16T14:37:34;19.00;82.80
3816;DHT22;1923;48.154;11.536;2024-02-16T14:40:02;18.90;82.90
3816;DHT22;1923;48.154;11.536;2024-02-16T14:42:32;19.00;83.20
3816;DHT22;1923;48.154;11.536;2024-02-16T14:45:01;19.00;83.70
3816;DHT22;1923;48.154;11.536;2024-02-16T14:47:30;18.90;83.70
3816;DHT22;1923;48.154;11.536;2024-02-16T14:49:58;19.00;84.10
3816;DHT22;1923;48.154;11.536;2024-02-16T14:52:27;19.00;84.40
3816;DHT22;1923;48.154;11.536;2024-02-16T14:54:55;19.00;85.40
3816;DHT22;1923;48.154;11.536;2024-02-16T14:57:24;18.90;84.90
3816;DHT22;1923;48.154;11.536;2024-02-16T14:59:52;18.70;85.20
3816;DHT22;1923;48.154;11.536;2024-02-16T15:02:24;18.80;86.70
3816;DHT22;1923;48.154;11.536;2024-02-16T15:04:52;18.80;86.40
3816;DHT22;1923;48.154;11.536;2024-02-16T15:07:21;18.70;86.80
3816;DHT22;1923;48.154;11.536;2024-02-16T15:09:49;18.60;87.30
3816;DHT22;1923;48.154;11.536;2024-02-16T15:12:17;18.50;87.80
3816;DHT22;1923;48.154;11.536;2024-02-16T15:14:46;18.40;88.50
3816;DHT22;1923;48.154;11.536;2024-02-16T15:17:14;18.40;88.70
3816;DHT22;1923;48.154;11.536;2024-02-16T15:19:45;18.30;88.70
3816;DHT22;1923;48.154;11.536;2024-02-16T15:22:13;18.30;88.70
3816;DHT22;1923;48.154;11.536;2024-02-16T15:24:41;18.20;89.20
3816;DHT22;1923;48.154;11.536;2024-02-16T15:27:10;18.20;89.70
3816;DHT22;1923;48.154;11.536;2024-02-16T15:29:38;18.10;89.90
3816;DHT22;1923;48.154;11.536;2024-02-16T15:32:06;18.00;90.20
3816;DHT22;1923;48.154;11.536;2024-02-16T15:34:36;17.90;90.10
3816;DHT22;1923;48.154;11.536;2024-02-16T15:37:05;17.90;90.40
3816;DHT22;1923;48.154;11.536;2024-02-16T15:39:33;17.80;90.60
3816;DHT22;1923;48.154;11.536;2024-02-16T15:42:02;17.60;90.60
3816;DHT22;1923;48.154;11.536;2024-02-16T15:44:30;17.50;90.60
3816;DHT22;1923;48.154;11.536;2024-02-16T15:46:58;17.40;90.80
3816;DHT22;1923;48.154;11.536;2024-02-16T15:49:26;17.30;90.90
3816;DHT22;1923;48.154;11.536;2024-02-16T15:51:54;17.20;91.00
3816;DHT22;1923;48.154;11.536;2024-02-16T15:54:24;17.10;91.20
3816;DHT22;1923;48.154;11.536;2024-02-16T15:56:53;17.00;91.20
3816;DHT22;1923;48.154;11.536;2024-02-16T15:59:25;16.90;91.50
3816;DHT22;1923;48.154;11.536;2024-02-16T16:01:53;16.80;92.00
3816;DHT22;1923;48.154;11.536;2024-02-16T16:04:23;16.70;92.00